Time;durP1;ratioP1;P1;durP2;ratioP2;P2;SDS_P1;SDS_P2;PMS_P1;PMS_P2;Temp;Humidity;BMP_temperature;BMP_pressure;BME280_temperature;BME280_humidity;BME280_pressure;Samples;Min_cycle;Max_cycle;Signal;HPM_P1;HPM_P2
2021/03/11 00:01:07;;;;;;;;;;;3.50;90.70;;;;;;5042401;28;87574;-66
2021/03/11 00:03:32;;;;;;;;;;;3.50;90.70;;;;;;5039375;28;88625;-66
2021/03/11 00:05:58;;;;;;;;;;;3.50;90.70;;;;;;5037841;27;87143;-66
2021/03/11 00:08:23;;;;;;;;;;;3.50;90.70;;;;;;5039205;28;87579;-65
2021/03/11 00:10:49;;;;;;;;;;;3.50;90.60;;;;;;5040021;27;88142;-65
2021/03/11 00:13:15;;;;;;;;;;;3.40;90.70;;;;;;5042043;28;86438;-65
2021/03/11 00:15:42;;;;;;;;;;;3.40;90.70;;;;;;5044001;27;87217;-65
2021/03/11 00:18:08;;;;;;;;;;;3.40;90.70;;;;;;5040075;28;87254;-66
2021/03/11 00:20:34;;;;;;;;;;;3.40;90.70;;;;;;5040911;28;88206;-65
2021/03/11 00:22:59;;;;;;;;;;;3.40;90.80;;;;;;5040791;28;88309;-65
2021/03/11 00:25:26;;;;;;;;;;;3.40;90.70;;;;;;5041438;27;87147;-66
2021/03/11 00:27:52;;;;;;;;;;;3.40;90.70;;;;;;5040059;27;87800;-65
2021/03/11 00:30:19;;;;;;;;;;;3.40;90.70;;;;;;5040386;27;89484;-65
2021/03/11 00:32:44;;;;;;;;;;;3.40;90.70;;;;;;5041073;27;87129;-65
2021/03/11 00:35:11;;;;;;;;;;;3.40;90.70;;;;;;5040923;27;87466;-66
2021/03/11 00:37:37;;;;;;;;;;;3.40;90.70;;;;;;5043340;28;87626;-66
2021/03/11 00:40:03;;;;;;;;;;;3.30;90.70;;;;;;5039430;28;87165;-65
2021/03/11 00:42:29;;;;;;;;;;;3.30;90.70;;;;;;5036948;27;88040;-65
2021/03/11 00:44:54;;;;;;;;;;;3.40;90.60;;;;;;5036711;28;88833;-66
2021/03/11 00:47:20;;;;;;;;;;;3.30;90.70;;;;;;5040531;28;88254;-65
2021/03/11 00:49:46;;;;;;;;;;;3.40;90.60;;;;;;5040100;27;87995;-66
2021/03/11 00:52:14;;;;;;;;;;;3.40;90.70;;;;;;5037569;28;88954;-65
2021/03/11 00:54:40;;;;;;;;;;;3.30;90.60;;;;;;5039609;28;87692;-65
2021/03/11 00:57:06;;;;;;;;;;;3.30;90.60;;;;;;5041028;28;87218;-66
2021/03/11 00:59:32;;;;;;;;;;;3.30;90.70;;;;;;5037443;28;87559;-65
2021/03/11 01:01:57;;;;;;;;;;;3.30;90.70;;;;;;5036500;27;88162;-65
2021/03/11 01:04:23;;;;;;;;;;;3.30;90.70;;;;;;5039085;27;88730;-65
2021/03/11 01:06:48;;;;;;;;;;;3.30;90.70;;;;;;5041521;28;87494;-65
2021/03/11 01:09:14;;;;;;;;;;;3.30;90.70;;;;;;5039662;27;90168;-66
2021/03/11 01:11:39;;;;;;;;;;;3.30;90.70;;;;;;5040374;28;87162;-65
2021/03/11 01:14:05;;;;;;;;;;;3.30;90.70;;;;;;5041530;28;87617;-65
2021/03/11 01:16:31;;;;;;;;;;;3.30;90.80;;;;;;5038159;27;88281;-65
2021/03/11 01:18:56;;;;;;;;;;;3.30;90.70;;;;;;5039716;28;87119;-65
2021/03/11 01:21:22;;;;;;;;;;;3.30;90.70;;;;;;5037776;28;87636;-66
2021/03/11 01:23:47;;;;;;;;;;;3.20;90.70;;;;;;5039315;27;87178;-65
2021/03/11 01:26:13;;;;;;;;;;;3.20;90.60;;;;;;5040793;27;86602;-66
2021/03/11 01:28:38;;;;;;;;;;;3.20;90.60;;;;;;5040644;27;88841;-65
2021/03/11 01:31:04;;;;;;;;;;;3.20;90.60;;;;;;5040283;28;88017;-65
2021/03/11 01:33:29;;;;;;;;;;;3.20;90.60;;;;;;5036082;28;88989;-65
2021/03/11 01:35:55;;;;;;;;;;;3.20;90.70;;;;;;5036892;28;88091;-65
2021/03/11 01:38:21;;;;;;;;;;;3.20;90.70;;;;;;5036841;28;87148;-65
2021/03/11 01:40:46;;;;;;;;;;;3.20;90.70;;;;;;5039835;28;87193;-65
2021/03/11 01:43:12;;;;;;;;;;;3.20;90.70;;;;;;5037485;27;87161;-66
2021/03/11 01:45:38;;;;;;;;;;;3.20;90.70;;;;;;5038481;28;87246;-65
2021/03/11 01:48:04;;;;;;;;;;;3.20;90.70;;;;;;5037868;28;88340;-65
2021/03/11 01:50:30;;;;;;;;;;;3.20;90.70;;;;;;5036721;27;86439;-65
2021/03/11 01:52:55;;;;;;;;;;;3.20;90.80;;;;;;5035822;28;88621;-65
2021/03/11 01:55:21;;;;;;;;;;;3.20;90.70;;;;;;5037790;27;88450;-66
2021/03/11 01:57:47;;;;;;;;;;;3.20;90.70;;;;;;5035410;27;89416;-65
2021/03/11 02:00:13;;;;;;;;;;;3.20;90.70;;;;;;5036565;27;88405;-65
2021/03/11 02:02:42;;;;;;;;;;;3.10;90.70;;;;;;5038746;27;90392;-65
2021/03/11 02:05:09;;;;;;;;;;;3.20;90.70;;;;;;5038731;27;87178;-66
2021/03/11 02:07:35;;;;;;;;;;;3.10;90.60;;;;;;5037796;27;89872;-65
2021/03/11 02:10:00;;;;;;;;;;;3.20;90.70;;;;;;5039401;27;87219;-65
2021/03/11 02:12:26;;;;;;;;;;;3.10;90.70;;;;;;5040444;27;87435;-65
2021/03/11 02:14:55;;;;;;;;;;;3.10;90.70;;;;;;5038351;28;87323;-65
2021/03/11 02:17:24;;;;;;;;;;;3.10;90.70;;;;;;5037739;27;87201;-65
2021/03/11 02:20:12;;;;;;;;;;;3.10;90.70;;;;;;5040530;27;87121;-65
2021/03/11 02:22:56;;;;;;;;;;;3.10;90.70;;;;;;5035516;27;88575;-65
2021/03/11 02:25:33;;;;;;;;;;;3.10;90.60;;;;;;5043095;28;87153;-66
2021/03/11 02:28:11;;;;;;;;;;;3.10;90.70;;;;;;5038489;27;87907;-65
2021/03/11 02:30:37;;;;;;;;;;;3.10;90.70;;;;;;5036427;28;87127;-65
2021/03/11 02:33:05;;;;;;;;;;;3.10;90.60;;;;;;5036985;27;87151;-65
2021/03/11 02:35:31;;;;;;;;;;;3.10;90.60;;;;;;5038226;27;87412;-65
2021/03/11 02:37:57;;;;;;;;;;;3.10;90.60;;;;;;5039124;27;88109;-65
2021/03/11 02:40:27;;;;;;;;;;;3.00;90.60;;;;;;5038625;28;88131;-65
2021/03/11 02:42:54;;;;;;;;;;;3.00;90.70;;;;;;5040201;28;88783;-65
2021/03/11 02:45:20;;;;;;;;;;;3.00;90.60;;;;;;5040216;27;88710;-66
2021/03/11 02:47:46;;;;;;;;;;;3.00;90.60;;;;;;5044445;27;89758;-66
2021/03/11 02:50:12;;;;;;;;;;;3.00;90.60;;;;;;5042297;27;87829;-65
2021/03/11 02:52:38;;;;;;;;;;;3.00;90.60;;;;;;5040870;28;87958;-65
2021/03/11 02:55:05;;;;;;;;;;;3.00;90.60;;;;;;5042919;27;88145;-65
2021/03/11 02:57:31;;;;;;;;;;;3.00;90.60;;;;;;5043317;27;87188;-66
2021/03/11 02:59:57;;;;;;;;;;;3.00;90.60;;;;;;5042950;27;87527;-65
2021/03/11 03:02:23;;;;;;;;;;;3.00;90.60;;;;;;5042397;27;89480;-65
2021/03/11 03:04:50;;;;;;;;;;;3.00;90.60;;;;;;5043494;27;86475;-66
2021/03/11 03:07:17;;;;;;;;;;;3.00;90.60;;;;;;5043782;27;87161;-66
2021/03/11 03:09:46;;;;;;;;;;;3.00;90.60;;;;;;5041417;28;87133;-65
2021/03/11 03:12:13;;;;;;;;;;;2.90;90.60;;;;;;5041842;27;88723;-66
2021/03/11 03:14:39;;;;;;;;;;;2.90;90.60;;;;;;5040735;27;88736;-65
2021/03/11 03:17:06;;;;;;;;;;;3.00;90.60;;;;;;5039684;28;87917;-66
2021/03/11 03:19:31;;;;;;;;;;;2.90;90.60;;;;;;5041722;27;88066;-65
2021/03/11 03:21:57;;;;;;;;;;;2.90;90.60;;;;;;5038891;28;88202;-65
2021/03/11 03:24:23;;;;;;;;;;;2.90;90.60;;;;;;5039589;27;88363;-66
2021/03/11 03:26:48;;;;;;;;;;;2.90;90.50;;;;;;5038399;27;87769;-66
2021/03/11 03:29:14;;;;;;;;;;;2.90;90.60;;;;;;5042834;28;87440;-66
2021/03/11 03:31:40;;;;;;;;;;;2.90;90.40;;;;;;5040900;27;87175;-65
2021/03/11 03:34:05;;;;;;;;;;;2.90;90.50;;;;;;5041259;27;87621;-66
2021/03/11 03:36:31;;;;;;;;;;;2.90;90.50;;;;;;5042182;28;88152;-65
2021/03/11 03:38:57;;;;;;;;;;;2.90;90.60;;;;;;5040296;28;88275;-65
2021/03/11 03:41:24;;;;;;;;;;;2.90;90.60;;;;;;5037452;28;88050;-65
2021/03/11 03:43:50;;;;;;;;;;;2.90;90.60;;;;;;5043016;28;88020;-65
2021/03/11 03:46:19;;;;;;;;;;;2.80;90.50;;;;;;5041722;27;87533;-66
2021/03/11 03:48:50;;;;;;;;;;;2.80;90.50;;;;;;5039572;27;87575;-66
2021/03/11 03:51:17;;;;;;;;;;;2.80;90.50;;;;;;5042624;28;87257;-65
2021/03/11 03:53:45;;;;;;;;;;;2.80;90.50;;;;;;5039314;27;87386;-65
2021/03/11 03:56:29;;;;;;;;;;;2.80;90.50;;;;;;5037847;27;88393;-66
2021/03/11 03:58:58;;;;;;;;;;;2.80;90.50;;;;;;5041351;28;88051;-65
2021/03/11 04:01:29;;;;;;;;;;;2.80;90.50;;;;;;5041494;27;88548;-66
2021/03/11 04:03:57;;;;;;;;;;;2.80;90.50;;;;;;5040299;27;88675;-65
2021/03/11 04:06:23;;;;;;;;;;;2.80;90.50;;;;;;5040526;28;88000;-66
2021/03/11 04:08:49;;;;;;;;;;;2.80;90.50;;;;;;5041349;28;87672;-66
2021/03/11 04:11:16;;;;;;;;;;;2.80;90.50;;;;;;5042054;27;87919;-65
2021/03/11 04:13:42;;;;;;;;;;;2.80;90.50;;;;;;5044211;27;87463;-65
2021/03/11 04:16:08;;;;;;;;;;;2.80;90.50;;;;;;5042135;27;87319;-66
2021/03/11 04:18:34;;;;;;;;;;;2.80;90.50;;;;;;5041700;27;88669;-66
2021/03/11 04:21:00;;;;;;;;;;;2.80;90.50;;;;;;5041282;27;88016;-66
2021/03/11 04:23:25;;;;;;;;;;;2.70;90.50;;;;;;5040115;27;87110;-65
2021/03/11 04:25:51;;;;;;;;;;;2.70;90.50;;;;;;5038549;28;88066;-65
2021/03/11 04:28:17;;;;;;;;;;;2.70;90.50;;;;;;5037751;28;87175;-66
2021/03/11 04:30:43;;;;;;;;;;;2.70;90.50;;;;;;5038883;27;87204;-66
2021/03/11 04:33:09;;;;;;;;;;;2.70;90.50;;;;;;5039348;27;87272;-66
2021/03/11 04:35:35;;;;;;;;;;;2.70;90.50;;;;;;5042841;27;87958;-66
2021/03/11 04:38:02;;;;;;;;;;;2.70;90.50;;;;;;5039892;28;87338;-66
2021/03/11 04:40:28;;;;;;;;;;;2.70;90.50;;;;;;5038741;28;88120;-66
2021/03/11 04:42:54;;;;;;;;;;;2.70;90.50;;;;;;5037825;28;86494;-65
2021/03/11 04:45:19;;;;;;;;;;;2.70;90.50;;;;;;5038210;27;87201;-66
2021/03/11 04:47:46;;;;;;;;;;;2.70;90.50;;;;;;5038933;28;88181;-66
2021/03/11 04:50:12;;;;;;;;;;;2.70;90.50;;;;;;5037820;28;88103;-66
2021/03/11 04:52:37;;;;;;;;;;;2.60;90.50;;;;;;5039035;27;88282;-66
2021/03/11 04:55:04;;;;;;;;;;;2.70;90.50;;;;;;5038728;27;88004;-66
2021/03/11 04:57:30;;;;;;;;;;;2.70;90.50;;;;;;5041048;27;87213;-66
2021/03/11 04:59:56;;;;;;;;;;;2.70;90.50;;;;;;5038496;27;87706;-66
2021/03/11 05:02:23;;;;;;;;;;;2.60;90.50;;;;;;5036932;28;87238;-66
2021/03/11 05:04:49;;;;;;;;;;;2.60;90.40;;;;;;5037008;28;87180;-65
2021/03/11 05:07:14;;;;;;;;;;;2.70;90.40;;;;;;5038345;28;87986;-65
2021/03/11 05:09:40;;;;;;;;;;;2.60;90.30;;;;;;5038450;27;87153;-65
2021/03/11 05:12:06;;;;;;;;;;;2.60;90.40;;;;;;5038673;28;87162;-66
2021/03/11 05:14:31;;;;;;;;;;;2.60;90.50;;;;;;5036690;28;89151;-65
2021/03/11 05:16:57;;;;;;;;;;;2.60;90.40;;;;;;5040041;28;87183;-65
2021/03/11 05:19:23;;;;;;;;;;;2.60;90.40;;;;;;5036146;27;90946;-66
2021/03/11 05:21:48;;;;;;;;;;;2.60;90.40;;;;;;5037733;28;87158;-66
2021/03/11 05:24:14;;;;;;;;;;;2.60;90.50;;;;;;5038432;28;87745;-65
2021/03/11 05:26:39;;;;;;;;;;;2.60;90.60;;;;;;5038354;28;88088;-66
2021/03/11 05:29:05;;;;;;;;;;;2.60;90.40;;;;;;5038745;28;87253;-66
2021/03/11 05:31:30;;;;;;;;;;;2.50;90.40;;;;;;5040537;28;87678;-66
2021/03/11 05:33:56;;;;;;;;;;;2.60;90.40;;;;;;5040773;27;88282;-66
2021/03/11 05:36:21;;;;;;;;;;;2.50;90.40;;;;;;5037724;28;87496;-66
2021/03/11 05:38:47;;;;;;;;;;;2.60;90.40;;;;;;5038586;27;88824;-66
2021/03/11 05:41:13;;;;;;;;;;;2.60;90.40;;;;;;5038003;28;87211;-66
2021/03/11 05:43:40;;;;;;;;;;;2.50;90.60;;;;;;5038362;27;87936;-66
2021/03/11 05:46:06;;;;;;;;;;;2.50;90.40;;;;;;5037389;27;87585;-65
2021/03/11 05:48:33;;;;;;;;;;;2.50;90.40;;;;;;5037527;27;87129;-65
2021/03/11 05:50:58;;;;;;;;;;;2.50;90.30;;;;;;5035947;28;87539;-66
2021/03/11 05:53:24;;;;;;;;;;;2.50;90.40;;;;;;5035803;28;87605;-66
2021/03/11 05:55:49;;;;;;;;;;;2.50;90.40;;;;;;5036188;28;86459;-65
2021/03/11 05:58:18;;;;;;;;;;;2.50;90.40;;;;;;5036806;28;87582;-66
2021/03/11 06:00:43;;;;;;;;;;;2.50;90.40;;;;;;5042087;27;88047;-66
2021/03/11 06:03:09;;;;;;;;;;;2.50;90.40;;;;;;5039138;28;88149;-66
2021/03/11 06:05:35;;;;;;;;;;;2.50;90.40;;;;;;5040172;27;87608;-66
2021/03/11 06:08:01;;;;;;;;;;;2.50;90.40;;;;;;5038421;27;88716;-65
2021/03/11 06:10:26;;;;;;;;;;;2.50;90.40;;;;;;5036789;28;88809;-65
2021/03/11 06:12:52;;;;;;;;;;;2.50;90.40;;;;;;5036219;27;87244;-66
2021/03/11 06:15:44;;;;;;;;;;;2.50;90.40;;;;;;5038993;27;87228;-65
2021/03/11 06:18:10;;;;;;;;;;;2.50;90.50;;;;;;5037767;28;87305;-65
2021/03/11 06:20:36;;;;;;;;;;;2.50;90.40;;;;;;5041721;27;87570;-65
2021/03/11 06:23:02;;;;;;;;;;;2.50;90.40;;;;;;5045273;27;87122;-66
2021/03/11 06:25:28;;;;;;;;;;;2.50;90.40;;;;;;5042604;27;88007;-66
2021/03/11 06:27:53;;;;;;;;;;;2.50;90.40;;;;;;5042641;28;88118;-66
2021/03/11 06:30:29;;;;;;;;;;;2.50;90.60;;;;;;5043103;27;87285;-65
2021/03/11 06:32:55;;;;;;;;;;;2.50;90.40;;;;;;5039932;28;88755;-65
2021/03/11 06:35:21;;;;;;;;;;;2.50;90.40;;;;;;5039555;27;87151;-66
2021/03/11 06:37:48;;;;;;;;;;;2.50;90.40;;;;;;5040321;28;87178;-66
2021/03/11 06:40:21;;;;;;;;;;;2.50;90.40;;;;;;5038986;27;87245;-66
2021/03/11 06:42:48;;;;;;;;;;;2.50;90.40;;;;;;5042532;27;87176;-66
2021/03/11 06:45:39;;;;;;;;;;;2.50;90.30;;;;;;5043369;27;86901;-66
2021/03/11 06:48:25;;;;;;;;;;;2.50;90.30;;;;;;5037069;28;88765;-66
2021/03/11 06:50:54;;;;;;;;;;;2.50;90.30;;;;;;5039930;27;87344;-66
2021/03/11 06:53:20;;;;;;;;;;;2.50;90.30;;;;;;5040575;27;88820;-66
2021/03/11 06:55:45;;;;;;;;;;;2.40;90.30;;;;;;5041133;28;87148;-65
2021/03/11 06:58:15;;;;;;;;;;;2.50;90.30;;;;;;5041927;28;87161;-65
2021/03/11 07:00:41;;;;;;;;;;;2.40;90.30;;;;;;5040452;27;88759;-65
2021/03/11 07:03:07;;;;;;;;;;;2.40;90.30;;;;;;5039012;28;88078;-65
2021/03/11 07:05:36;;;;;;;;;;;2.40;90.30;;;;;;5041083;28;87151;-65
2021/03/11 07:08:07;;;;;;;;;;;2.40;90.30;;;;;;5038609;28;87222;-66
2021/03/11 07:10:32;;;;;;;;;;;2.40;90.30;;;;;;5039037;28;86964;-66
2021/03/11 07:12:59;;;;;;;;;;;2.40;90.30;;;;;;5038811;27;87615;-65
2021/03/11 07:15:26;;;;;;;;;;;2.40;90.40;;;;;;5038950;28;87257;-65
2021/03/11 07:17:52;;;;;;;;;;;2.40;90.30;;;;;;5036918;27;88112;-66
2021/03/11 07:20:19;;;;;;;;;;;2.40;90.30;;;;;;5041722;27;87649;-65
2021/03/11 07:23:03;;;;;;;;;;;2.40;90.40;;;;;;5039593;28;87188;-66
2021/03/11 07:25:33;;;;;;;;;;;2.40;90.30;;;;;;5040533;28;87142;-65
2021/03/11 07:27:59;;;;;;;;;;;2.40;90.30;;;;;;5043468;27;89692;-65
2021/03/11 07:30:25;;;;;;;;;;;2.40;90.30;;;;;;5040898;27;87877;-66
2021/03/11 07:32:57;;;;;;;;;;;2.50;90.40;;;;;;5041257;28;87640;-65
2021/03/11 07:35:24;;;;;;;;;;;2.40;90.40;;;;;;5041714;27;86487;-65
2021/03/11 07:37:51;;;;;;;;;;;2.50;90.30;;;;;;5040400;28;87206;-66
2021/03/11 07:40:17;;;;;;;;;;;2.50;90.30;;;;;;5039108;27;89561;-65
2021/03/11 07:42:43;;;;;;;;;;;2.40;90.30;;;;;;5039137;27;88172;-65
2021/03/11 07:45:12;;;;;;;;;;;2.50;90.30;;;;;;5040756;27;87179;-66
2021/03/11 07:47:39;;;;;;;;;;;2.40;90.20;;;;;;5036656;28;89485;-65
2021/03/11 07:50:06;;;;;;;;;;;2.50;90.20;;;;;;5043691;28;87147;-66
2021/03/11 07:52:32;;;;;;;;;;;2.50;90.10;;;;;;5036408;27;88766;-65
2021/03/11 07:54:58;;;;;;;;;;;2.50;90.20;;;;;;5039834;27;88580;-65
2021/03/11 07:57:24;;;;;;;;;;;2.50;90.10;;;;;;5040955;28;87302;-66
2021/03/11 07:59:50;;;;;;;;;;;2.40;90.20;;;;;;5040291;28;87420;-66
2021/03/11 08:02:17;;;;;;;;;;;2.50;90.20;;;;;;5039363;27;87118;-66
2021/03/11 08:04:43;;;;;;;;;;;2.50;90.20;;;;;;5036326;27;88335;-65
2021/03/11 08:07:19;;;;;;;;;;;2.50;90.10;;;;;;5040425;28;88101;-65
2021/03/11 08:09:45;;;;;;;;;;;2.50;90.00;;;;;;5039347;28;87602;-66
2021/03/11 08:12:25;;;;;;;;;;;2.50;90.10;;;;;;5040336;27;88433;-65
2021/03/11 08:14:51;;;;;;;;;;;2.50;90.10;;;;;;5039233;28;88638;-65
2021/03/11 08:17:35;;;;;;;;;;;2.50;90.10;;;;;;5015868;28;706744;-66
2021/03/11 08:20:01;;;;;;;;;;;2.40;90.10;;;;;;5038691;27;87500;-65
2021/03/11 08:23:00;;;;;;;;;;;2.50;90.10;;;;;;5039940;28;87163;-65
2021/03/11 08:25:38;;;;;;;;;;;2.40;90.10;;;;;;5041101;27;89345;-65
2021/03/11 08:28:09;;;;;;;;;;;2.40;90.00;;;;;;5038928;28;88599;-65
2021/03/11 08:30:41;;;;;;;;;;;2.50;90.00;;;;;;5038692;28;87168;-66
2021/03/11 08:33:06;;;;;;;;;;;2.50;90.00;;;;;;5038461;28;88177;-66
2021/03/11 08:35:35;;;;;;;;;;;2.50;90.00;;;;;;5041953;28;87816;-66
2021/03/11 08:38:01;;;;;;;;;;;2.50;89.90;;;;;;5041165;28;88286;-66
2021/03/11 08:40:32;;;;;;;;;;;2.50;90.00;;;;;;5040866;27;88322;-65
2021/03/11 08:42:58;;;;;;;;;;;2.50;90.00;;;;;;5038909;28;87108;-66
2021/03/11 08:45:39;;;;;;;;;;;2.50;90.00;;;;;;5038131;28;87586;-65
2021/03/11 08:48:15;;;;;;;;;;;2.50;90.00;;;;;;5036903;27;88142;-66
2021/03/11 08:50:40;;;;;;;;;;;2.50;90.00;;;;;;5039007;27;86382;-66
2021/03/11 08:53:06;;;;;;;;;;;2.50;90.00;;;;;;5039285;27;87185;-66
2021/03/11 08:55:36;;;;;;;;;;;2.50;90.00;;;;;;5040009;27;88134;-65
2021/03/11 08:58:02;;;;;;;;;;;2.50;90.10;;;;;;5043225;28;89548;-66
2021/03/11 09:00:58;;;;;;;;;;;2.50;90.10;;;;;;5039358;27;88307;-66
2021/03/11 09:03:39;;;;;;;;;;;2.50;90.10;;;;;;5024172;28;90305;-65
2021/03/11 09:06:08;;;;;;;;;;;2.40;90.10;;;;;;5037478;27;87497;-66
2021/03/11 09:08:35;;;;;;;;;;;2.50;90.00;;;;;;5040942;27;87743;-65
2021/03/11 09:11:08;;;;;;;;;;;2.50;90.10;;;;;;5040202;27;87281;-66
2021/03/11 09:13:34;;;;;;;;;;;2.50;90.00;;;;;;5037739;27;88794;-65
2021/03/11 09:15:59;;;;;;;;;;;2.50;90.00;;;;;;5038486;27;87781;-65
2021/03/11 09:18:25;;;;;;;;;;;2.50;90.00;;;;;;5042428;28;87215;-65
2021/03/11 09:20:54;;;;;;;;;;;2.50;90.00;;;;;;5039727;27;88210;-66
2021/03/11 09:23:19;;;;;;;;;;;2.50;90.00;;;;;;5037122;28;89614;-65
2021/03/11 09:25:45;;;;;;;;;;;2.50;90.00;;;;;;5037144;28;88364;-65
2021/03/11 09:28:13;;;;;;;;;;;2.50;90.00;;;;;;5038077;28;87728;-66
2021/03/11 09:30:41;;;;;;;;;;;2.50;90.00;;;;;;5041429;28;87282;-66
2021/03/11 09:33:13;;;;;;;;;;;2.50;90.00;;;;;;5039543;27;89324;-66
2021/03/11 09:35:39;;;;;;;;;;;2.50;90.10;;;;;;5037595;27;88139;-66
2021/03/11 09:38:05;;;;;;;;;;;2.40;90.00;;;;;;5038401;28;87167;-66
2021/03/11 09:40:38;;;;;;;;;;;2.40;90.00;;;;;;5041096;27;86958;-65
2021/03/11 09:43:14;;;;;;;;;;;2.50;90.10;;;;;;5040770;28;88327;-65
2021/03/11 09:45:40;;;;;;;;;;;2.40;90.10;;;;;;5039987;28;87146;-66
2021/03/11 09:48:07;;;;;;;;;;;2.50;90.10;;;;;;5037691;27;89136;-66
2021/03/11 09:50:33;;;;;;;;;;;2.40;90.10;;;;;;5035801;28;87118;-65
2021/03/11 09:52:59;;;;;;;;;;;2.50;90.10;;;;;;5038367;27;87122;-65
2021/03/11 09:55:25;;;;;;;;;;;2.50;90.10;;;;;;5040738;27;88422;-66
2021/03/11 09:57:50;;;;;;;;;;;2.50;90.10;;;;;;5038904;27;88722;-66
2021/03/11 10:00:17;;;;;;;;;;;2.50;90.10;;;;;;5036124;27;87129;-66
2021/03/11 10:02:50;;;;;;;;;;;2.50;90.10;;;;;;5040919;27;88501;-65
2021/03/11 10:05:15;;;;;;;;;;;2.50;90.10;;;;;;5040120;27;87194;-66
2021/03/11 10:07:41;;;;;;;;;;;2.50;90.10;;;;;;5038394;28;89794;-66
2021/03/11 10:10:11;;;;;;;;;;;2.50;90.00;;;;;;5038374;27;88556;-66
2021/03/11 10:12:37;;;;;;;;;;;2.50;90.00;;;;;;5036067;28;88161;-66
2021/03/11 10:15:06;;;;;;;;;;;2.50;90.00;;;;;;5036814;28;87649;-66
2021/03/11 10:17:32;;;;;;;;;;;2.50;90.00;;;;;;5039559;27;87167;-66
2021/03/11 10:19:58;;;;;;;;;;;2.50;90.00;;;;;;5038879;28;88043;-66
2021/03/11 10:22:25;;;;;;;;;;;2.50;90.10;;;;;;5038470;27;88262;-65
2021/03/11 10:24:52;;;;;;;;;;;2.50;90.10;;;;;;5042358;27;87238;-66
2021/03/11 10:27:24;;;;;;;;;;;2.50;90.10;;;;;;5039007;28;87999;-66
2021/03/11 10:30:09;;;;;;;;;;;2.50;90.10;;;;;;5038077;28;86366;-65
2021/03/11 10:32:35;;;;;;;;;;;2.60;90.10;;;;;;5039751;28;88588;-65
2021/03/11 10:35:01;;;;;;;;;;;2.60;90.10;;;;;;5038802;27;88149;-65
2021/03/11 10:37:30;;;;;;;;;;;2.60;90.10;;;;;;5038378;27;88155;-65
2021/03/11 10:39:57;;;;;;;;;;;2.50;90.20;;;;;;5037070;28;88418;-65
2021/03/11 10:42:24;;;;;;;;;;;2.60;90.20;;;;;;5039786;28;88111;-66
2021/03/11 10:44:57;;;;;;;;;;;2.60;90.20;;;;;;5039483;27;87185;-66
2021/03/11 10:47:22;;;;;;;;;;;2.60;90.20;;;;;;5038493;27;87214;-65
2021/03/11 10:49:48;;;;;;;;;;;2.60;90.20;;;;;;5037269;27;87203;-65
2021/03/11 10:52:17;;;;;;;;;;;2.60;90.20;;;;;;5038541;28;87198;-65
2021/03/11 10:54:43;;;;;;;;;;;2.60;90.30;;;;;;5035515;28;87300;-65
2021/03/11 10:57:12;;;;;;;;;;;2.60;90.20;;;;;;5036173;27;87172;-65
2021/03/11 10:59:47;;;;;;;;;;;2.60;90.10;;;;;;5038406;28;87265;-65
2021/03/11 11:02:13;;;;;;;;;;;2.60;90.20;;;;;;5040832;28;88710;-65
2021/03/11 11:04:40;;;;;;;;;;;2.60;90.20;;;;;;5040972;27;87175;-65
2021/03/11 11:07:06;;;;;;;;;;;2.60;90.10;;;;;;5039064;28;88774;-65
2021/03/11 11:09:31;;;;;;;;;;;2.60;90.20;;;;;;5045436;27;88176;-65
2021/03/11 11:11:57;;;;;;;;;;;2.60;90.20;;;;;;5042697;27;87804;-65
2021/03/11 11:14:22;;;;;;;;;;;2.60;90.20;;;;;;5042377;28;87711;-65
2021/03/11 11:16:48;;;;;;;;;;;2.60;90.20;;;;;;5039471;28;87954;-65
2021/03/11 11:19:13;;;;;;;;;;;2.60;90.20;;;;;;5039596;28;86750;-65
2021/03/11 11:21:39;;;;;;;;;;;2.70;90.20;;;;;;5038001;28;87265;-65
2021/03/11 11:24:05;;;;;;;;;;;2.70;90.10;;;;;;5038260;28;87128;-65
2021/03/11 11:26:30;;;;;;;;;;;2.70;90.20;;;;;;5039903;28;88170;-65
2021/03/11 11:28:56;;;;;;;;;;;2.70;90.20;;;;;;5041045;28;87672;-65
2021/03/11 11:31:21;;;;;;;;;;;2.70;90.20;;;;;;5039717;28;87162;-65
2021/03/11 11:33:47;;;;;;;;;;;2.70;90.10;;;;;;5040737;28;87413;-65
2021/03/11 11:36:12;;;;;;;;;;;2.70;90.10;;;;;;5042299;28;87164;-65
2021/03/11 11:38:37;;;;;;;;;;;2.70;90.20;;;;;;5041704;28;88409;-65
2021/03/11 11:41:03;;;;;;;;;;;2.70;90.20;;;;;;5040648;28;90180;-65
2021/03/11 11:43:28;;;;;;;;;;;2.80;90.20;;;;;;5043467;28;86425;-65
2021/03/11 11:45:54;;;;;;;;;;;2.80;90.10;;;;;;5042446;28;87183;-65
2021/03/11 11:48:19;;;;;;;;;;;2.80;90.20;;;;;;5041761;28;87550;-65
2021/03/11 11:50:45;;;;;;;;;;;2.80;90.20;;;;;;5041086;28;89725;-65
2021/03/11 11:53:11;;;;;;;;;;;2.80;90.20;;;;;;5038361;27;87961;-65
2021/03/11 11:55:36;;;;;;;;;;;2.80;90.20;;;;;;5039884;28;87225;-65
2021/03/11 11:58:02;;;;;;;;;;;2.80;90.20;;;;;;5041267;28;87265;-65
2021/03/11 12:00:27;;;;;;;;;;;2.80;90.20;;;;;;5042097;28;88242;-65
2021/03/11 12:02:53;;;;;;;;;;;2.80;90.20;;;;;;5040509;28;88694;-64
2021/03/11 12:05:18;;;;;;;;;;;2.80;90.10;;;;;;5037723;27;87498;-65
2021/03/11 12:07:44;;;;;;;;;;;2.80;89.60;;;;;;5039371;28;89256;-65
2021/03/11 12:10:10;;;;;;;;;;;2.80;89.90;;;;;;5037764;27;88556;-65
2021/03/11 12:12:37;;;;;;;;;;;2.80;90.10;;;;;;5039555;27;89047;-66
2021/03/11 12:15:03;;;;;;;;;;;2.80;90.10;;;;;;5040235;27;89568;-65
2021/03/11 12:17:29;;;;;;;;;;;2.80;90.20;;;;;;5041350;28;89068;-65
2021/03/11 12:19:54;;;;;;;;;;;2.80;90.10;;;;;;5038019;27;88344;-65
2021/03/11 12:22:20;;;;;;;;;;;2.80;90.10;;;;;;5038208;27;87130;-65
2021/03/11 12:24:46;;;;;;;;;;;2.80;90.20;;;;;;5039315;27;87353;-65
2021/03/11 12:27:11;;;;;;;;;;;2.80;90.20;;;;;;5040104;28;87569;-66
2021/03/11 12:29:37;;;;;;;;;;;2.80;90.20;;;;;;5040823;27;87234;-65
2021/03/11 12:32:03;;;;;;;;;;;2.80;90.20;;;;;;5042034;27;87009;-65
2021/03/11 12:34:28;;;;;;;;;;;2.80;90.30;;;;;;5044328;28;88272;-65
2021/03/11 12:36:54;;;;;;;;;;;2.80;90.40;;;;;;5040770;28;88552;-65
2021/03/11 12:39:19;;;;;;;;;;;2.80;90.30;;;;;;5038903;28;89180;-65
2021/03/11 12:41:45;;;;;;;;;;;2.80;90.40;;;;;;5037233;28;87152;-65
2021/03/11 12:44:11;;;;;;;;;;;2.80;90.40;;;;;;5038465;27;87231;-66
2021/03/11 12:46:36;;;;;;;;;;;2.80;90.40;;;;;;5037996;27;87206;-65
2021/03/11 12:49:02;;;;;;;;;;;2.80;90.40;;;;;;5039169;28;87144;-65
2021/03/11 12:51:28;;;;;;;;;;;2.80;90.40;;;;;;5040223;27;87556;-65
2021/03/11 12:53:53;;;;;;;;;;;2.80;90.40;;;;;;5040977;28;88209;-65
2021/03/11 12:56:19;;;;;;;;;;;2.90;90.40;;;;;;5043459;28;87088;-65
2021/03/11 12:58:46;;;;;;;;;;;2.90;90.30;;;;;;5039399;27;88447;-65
2021/03/11 13:01:11;;;;;;;;;;;2.90;90.30;;;;;;5041488;27;87156;-65
2021/03/11 13:03:37;;;;;;;;;;;2.80;90.40;;;;;;5038497;28;89366;-65
2021/03/11 13:06:02;;;;;;;;;;;2.90;90.40;;;;;;5036740;28;88066;-65
2021/03/11 13:08:28;;;;;;;;;;;2.90;90.50;;;;;;5037001;27;87210;-65
2021/03/11 13:10:54;;;;;;;;;;;2.80;90.40;;;;;;5037343;27;89425;-65
2021/03/11 13:13:20;;;;;;;;;;;2.90;90.40;;;;;;5037426;27;87897;-65
2021/03/11 13:15:46;;;;;;;;;;;2.90;90.50;;;;;;5038460;27;87235;-65
2021/03/11 13:18:11;;;;;;;;;;;2.90;90.50;;;;;;5040438;28;87178;-65
2021/03/11 13:20:37;;;;;;;;;;;2.90;90.50;;;;;;5038710;27;86426;-65
2021/03/11 13:23:03;;;;;;;;;;;2.90;90.50;;;;;;5037011;27;87141;-65
2021/03/11 13:25:30;;;;;;;;;;;2.90;90.50;;;;;;5036321;27;88696;-65
2021/03/11 13:27:55;;;;;;;;;;;2.90;90.50;;;;;;5040373;27;88128;-65
2021/03/11 13:30:21;;;;;;;;;;;2.90;90.60;;;;;;5041179;28;87987;-65
2021/03/11 13:32:47;;;;;;;;;;;2.90;90.60;;;;;;5038866;28;87725;-65
2021/03/11 13:35:13;;;;;;;;;;;2.90;90.60;;;;;;5038758;27;87386;-65
2021/03/11 13:37:39;;;;;;;;;;;2.90;90.60;;;;;;5042268;27;88038;-65
2021/03/11 13:40:05;;;;;;;;;;;2.90;90.60;;;;;;5039070;28;87679;-65
2021/03/11 13:42:31;;;;;;;;;;;2.90;90.60;;;;;;5038085;27;87553;-65
2021/03/11 13:44:57;;;;;;;;;;;2.90;90.60;;;;;;5036813;28;87931;-65
2021/03/11 13:47:23;;;;;;;;;;;2.90;90.70;;;;;;5037922;27;88742;-65
2021/03/11 13:49:49;;;;;;;;;;;2.90;90.60;;;;;;5036912;28;88734;-65
2021/03/11 13:52:15;;;;;;;;;;;2.90;90.60;;;;;;5035553;27;88977;-65
2021/03/11 13:54:40;;;;;;;;;;;2.90;90.70;;;;;;5035780;27;87167;-65
2021/03/11 13:57:06;;;;;;;;;;;2.90;90.70;;;;;;5037014;28;87144;-65
2021/03/11 13:59:31;;;;;;;;;;;2.90;90.70;;;;;;5043508;27;87622;-65
2021/03/11 14:01:57;;;;;;;;;;;2.90;90.60;;;;;;5054990;27;90567;-65
2021/03/11 14:04:22;;;;;;;;;;;2.90;90.60;;;;;;5035723;28;88271;-65
2021/03/11 14:06:48;;;;;;;;;;;2.90;90.60;;;;;;5036438;28;88038;-65
2021/03/11 14:09:13;;;;;;;;;;;2.90;90.60;;;;;;5037298;28;86848;-65
2021/03/11 14:11:42;;;;;;;;;;;2.90;90.60;;;;;;5037788;28;88206;-65
2021/03/11 14:14:08;;;;;;;;;;;2.90;90.60;;;;;;5040486;27;88758;-65
2021/03/11 14:16:33;;;;;;;;;;;2.90;90.60;;;;;;5039004;28;88178;-65
2021/03/11 14:18:59;;;;;;;;;;;2.90;90.60;;;;;;5038481;27;87155;-65
2021/03/11 14:21:24;;;;;;;;;;;2.90;90.60;;;;;;5040962;28;87139;-65
2021/03/11 14:23:50;;;;;;;;;;;2.90;90.60;;;;;;5037045;27;88310;-65
2021/03/11 14:26:15;;;;;;;;;;;3.00;90.60;;;;;;5037751;28;87164;-65
2021/03/11 14:28:41;;;;;;;;;;;3.00;90.60;;;;;;5038059;28;87187;-66
2021/03/11 14:31:07;;;;;;;;;;;3.00;90.60;;;;;;5037364;28;88341;-65